Terminal Aerodrome Forecast
Issued by NWS Shreveport, LA

Home | Current Version | Previous Version | Text Only | Print | Product List | Glossary On
Versions: 1 2 3 4 5 6 7 8 9 10 11 12 13
000
FTUS44 KSHV 222340
TAFGGG
TAF
KGGG 222340Z 2300/2324 34007KT P6SM FEW250
     FM230500 VRB03KT P6SM BKN250
     FM231200 VRB04KT P6SM SCT180
     FM231700 26004KT P6SM FEW180=

USA.gov is the U.S. government's official web portal to all federal, state and local government web resources and services.